Time;durP1;ratioP1;P1;durP2;ratioP2;P2;SDS_P1;SDS_P2;PMS_P1;PMS_P2;Temp;Humidity;BMP_temperature;BMP_pressure;BME280_temperature;BME280_humidity;BME280_pressure;Samples;Min_cycle;Max_cycle;Signal;HPM_P1;HPM_P2
2023/04/29 00:02:21;;;;;;;6.90;5.20;;;;;;;;;;108434;269;29046;-36
2023/04/29 00:05:00;;;;;;;6.80;4.70;;;;;;;;;;108320;272;28281;-37
2023/04/29 00:07:36;;;;;;;6.00;4.80;;;;;;;;;;108360;276;27939;-37
2023/04/29 00:10:14;;;;;;;6.50;4.70;;;;;;;;;;108306;269;28336;-37
2023/04/29 00:12:50;;;;;;;6.00;4.90;;;;;;;;;;108352;269;28076;-34
2023/04/29 00:15:28;;;;;;;6.60;5.10;;;;;;;;;;108327;276;27564;-33
2023/04/29 00:18:04;;;;;;;6.20;4.90;;;;;;;;;;108398;272;27970;-33
2023/04/29 00:20:39;;;;;;;6.00;5.00;;;;;;;;;;108276;273;27083;-33
2023/04/29 00:23:13;;;;;;;6.60;4.70;;;;;;;;;;108293;276;28319;-33
2023/04/29 00:25:52;;;;;;;6.50;5.20;;;;;;;;;;108316;276;29646;-33
2023/04/29 00:28:29;;;;;;;6.40;5.10;;;;;;;;;;108354;276;27954;-33
2023/04/29 00:31:06;;;;;;;6.50;4.90;;;;;;;;;;108239;272;33135;-33
2023/04/29 00:33:40;;;;;;;6.10;4.90;;;;;;;;;;108403;269;28076;-33
2023/04/29 00:36:15;;;;;;;6.50;5.30;;;;;;;;;;108405;268;28749;-33
2023/04/29 00:38:50;;;;;;;7.10;5.20;;;;;;;;;;108322;272;29035;-33
2023/04/29 00:41:25;;;;;;;6.60;5.20;;;;;;;;;;108279;276;33084;-33
2023/04/29 00:44:02;;;;;;;6.20;5.00;;;;;;;;;;108281;275;28348;-33
2023/04/29 00:46:38;;;;;;;6.70;5.10;;;;;;;;;;108291;275;28518;-33
2023/04/29 00:49:22;;;;;;;6.20;4.90;;;;;;;;;;108330;275;27638;-35
2023/04/29 00:51:58;;;;;;;7.10;5.10;;;;;;;;;;108329;275;33626;-36
2023/04/29 00:54:35;;;;;;;6.30;5.30;;;;;;;;;;108361;267;28139;-36
2023/04/29 00:57:11;;;;;;;6.30;5.00;;;;;;;;;;108362;275;29064;-36
2023/04/29 00:59:47;;;;;;;6.70;5.20;;;;;;;;;;108344;275;27966;-36
2023/04/29 01:02:23;;;;;;;7.20;5.20;;;;;;;;;;108352;275;27137;-36
2023/04/29 01:05:02;;;;;;;6.30;4.90;;;;;;;;;;108364;275;29268;-36
2023/04/29 01:07:45;;;;;;;6.50;5.10;;;;;;;;;;108354;267;28631;-37
2023/04/29 01:10:31;;;;;;;6.00;5.00;;;;;;;;;;108325;275;28088;-36
2023/04/29 01:13:17;;;;;;;6.30;5.00;;;;;;;;;;108337;275;27136;-36
2023/04/29 01:16:03;;;;;;;6.60;5.00;;;;;;;;;;108320;267;27981;-37
2023/04/29 01:18:44;;;;;;;6.40;5.20;;;;;;;;;;108376;267;28504;-38
2023/04/29 01:21:21;;;;;;;6.20;4.80;;;;;;;;;;108254;275;28499;-34
2023/04/29 01:23:57;;;;;;;7.30;5.20;;;;;;;;;;108319;271;27170;-34
2023/04/29 01:26:35;;;;;;;6.40;5.10;;;;;;;;;;108305;267;28103;-33
2023/04/29 01:29:27;;;;;;;6.80;5.10;;;;;;;;;;108332;267;29840;-32
2023/04/29 01:32:08;;;;;;;6.40;5.20;;;;;;;;;;108307;275;27841;-32
2023/04/29 01:34:52;;;;;;;6.20;5.10;;;;;;;;;;108304;275;28227;-33
2023/04/29 01:37:42;;;;;;;6.60;5.20;;;;;;;;;;108347;275;27809;-33
2023/04/29 01:40:22;;;;;;;6.40;5.20;;;;;;;;;;108386;275;28523;-36
2023/04/29 01:43:03;;;;;;;6.50;5.30;;;;;;;;;;108417;271;34852;-37
2023/04/29 01:45:41;;;;;;;6.40;5.30;;;;;;;;;;108382;271;26932;-37
2023/04/29 01:48:19;;;;;;;5.90;5.20;;;;;;;;;;108374;275;27910;-35
2023/04/29 01:50:58;;;;;;;6.30;5.10;;;;;;;;;;108311;271;30171;-34
2023/04/29 01:53:35;;;;;;;6.70;5.20;;;;;;;;;;108221;275;175657;-34
2023/04/29 01:56:14;;;;;;;6.60;5.00;;;;;;;;;;108347;267;26921;-34
2023/04/29 01:58:49;;;;;;;6.50;5.00;;;;;;;;;;108347;267;27836;-34
2023/04/29 02:01:23;;;;;;;6.70;5.20;;;;;;;;;;108348;275;28639;-34
2023/04/29 02:03:57;;;;;;;7.30;5.30;;;;;;;;;;108362;275;27832;-34
2023/04/29 02:06:33;;;;;;;6.90;5.20;;;;;;;;;;108382;275;26946;-33
2023/04/29 02:09:09;;;;;;;6.80;5.10;;;;;;;;;;108352;275;28063;-34
2023/04/29 02:11:43;;;;;;;6.40;4.90;;;;;;;;;;108288;268;28722;-37
2023/04/29 02:14:22;;;;;;;6.20;5.30;;;;;;;;;;107711;267;896482;-36
2023/04/29 02:17:01;;;;;;;6.30;5.00;;;;;;;;;;108367;267;27173;-37
2023/04/29 02:19:36;;;;;;;6.20;4.90;;;;;;;;;;108366;275;28057;-38
2023/04/29 02:22:12;;;;;;;5.60;4.70;;;;;;;;;;108355;267;28302;-38
2023/04/29 02:24:47;;;;;;;6.00;4.90;;;;;;;;;;108338;275;27975;-37
2023/04/29 02:27:25;;;;;;;6.80;5.10;;;;;;;;;;108386;275;27410;-38
2023/04/29 02:30:04;;;;;;;6.70;5.20;;;;;;;;;;108366;271;28305;-38
2023/04/29 02:32:40;;;;;;;6.60;5.10;;;;;;;;;;108337;271;29817;-37
2023/04/29 02:35:20;;;;;;;5.60;4.80;;;;;;;;;;108337;275;27968;-36
2023/04/29 02:37:54;;;;;;;6.60;5.00;;;;;;;;;;108391;275;26938;-36
2023/04/29 02:40:29;;;;;;;7.00;5.00;;;;;;;;;;108317;275;28078;-37
2023/04/29 02:43:09;;;;;;;6.30;5.00;;;;;;;;;;108319;273;28520;-37
2023/04/29 02:45:43;;;;;;;6.70;5.00;;;;;;;;;;108372;275;27964;-38
2023/04/29 02:48:22;;;;;;;6.60;4.90;;;;;;;;;;108404;267;27833;-38
2023/04/29 02:50:55;;;;;;;6.50;5.10;;;;;;;;;;108359;267;28231;-37
2023/04/29 02:53:36;;;;;;;6.40;5.00;;;;;;;;;;108283;275;28582;-37
2023/04/29 02:56:14;;;;;;;6.70;4.70;;;;;;;;;;108363;267;27647;-38
2023/04/29 02:58:51;;;;;;;6.40;4.90;;;;;;;;;;108372;271;28121;-37
2023/04/29 03:01:27;;;;;;;5.90;4.80;;;;;;;;;;108362;271;28252;-37
2023/04/29 03:04:01;;;;;;;6.20;4.90;;;;;;;;;;108352;271;28654;-38
2023/04/29 03:06:36;;;;;;;6.20;4.70;;;;;;;;;;108407;267;27888;-37
2023/04/29 03:09:13;;;;;;;6.40;5.10;;;;;;;;;;108351;275;27163;-38
2023/04/29 03:11:52;;;;;;;6.60;4.90;;;;;;;;;;108354;267;27933;-36
2023/04/29 03:14:29;;;;;;;6.90;5.30;;;;;;;;;;108307;275;28312;-34
2023/04/29 03:17:07;;;;;;;6.30;4.90;;;;;;;;;;108300;267;27803;-34
2023/04/29 03:19:47;;;;;;;6.10;4.60;;;;;;;;;;108346;267;27287;-34
2023/04/29 03:22:26;;;;;;;6.60;4.90;;;;;;;;;;108339;275;28091;-34
2023/04/29 03:25:03;;;;;;;7.00;5.20;;;;;;;;;;108322;271;28443;-34
2023/04/29 03:27:37;;;;;;;6.50;5.10;;;;;;;;;;108378;276;27964;-34
2023/04/29 03:30:12;;;;;;;6.70;4.80;;;;;;;;;;108360;271;27353;-34
2023/04/29 03:32:48;;;;;;;7.00;4.80;;;;;;;;;;108370;275;28090;-34
2023/04/29 03:35:23;;;;;;;6.00;4.70;;;;;;;;;;108288;271;28529;-34
2023/04/29 03:37:58;;;;;;;6.60;5.00;;;;;;;;;;108286;267;27903;-35
2023/04/29 03:40:35;;;;;;;6.80;5.20;;;;;;;;;;108358;275;27288;-37
2023/04/29 03:43:14;;;;;;;6.50;5.00;;;;;;;;;;108335;275;28083;-37
2023/04/29 03:45:49;;;;;;;6.70;5.00;;;;;;;;;;108329;267;35461;-37
2023/04/29 03:48:23;;;;;;;5.90;4.60;;;;;;;;;;108344;275;27890;-37
2023/04/29 03:50:57;;;;;;;6.80;4.70;;;;;;;;;;108355;275;27137;-37
2023/04/29 03:53:36;;;;;;;6.20;4.90;;;;;;;;;;108291;271;27868;-38
2023/04/29 03:56:10;;;;;;;6.40;4.70;;;;;;;;;;108319;275;36269;-37
2023/04/29 03:58:47;;;;;;;5.80;4.30;;;;;;;;;;108341;276;27641;-37
2023/04/29 04:01:25;;;;;;;7.10;4.80;;;;;;;;;;108298;269;26980;-36
2023/04/29 04:04:04;;;;;;;6.50;4.80;;;;;;;;;;108298;267;28170;-36
2023/04/29 04:06:40;;;;;;;6.10;4.60;;;;;;;;;;108346;271;28868;-37
2023/04/29 04:09:18;;;;;;;6.30;4.80;;;;;;;;;;108332;275;27901;-36
2023/04/29 04:11:54;;;;;;;6.50;4.70;;;;;;;;;;108360;271;27256;-36
2023/04/29 04:14:38;;;;;;;6.60;4.80;;;;;;;;;;108275;275;29417;-37
2023/04/29 04:17:15;;;;;;;6.40;4.50;;;;;;;;;;108316;275;28525;-34
2023/04/29 04:19:53;;;;;;;7.40;4.90;;;;;;;;;;108391;267;28205;-33
2023/04/29 04:22:31;;;;;;;5.80;4.70;;;;;;;;;;108343;267;26945;-33
2023/04/29 04:25:10;;;;;;;6.10;4.70;;;;;;;;;;108365;271;28236;-36
2023/04/29 04:27:45;;;;;;;6.60;4.60;;;;;;;;;;108346;271;28524;-37
2023/04/29 04:30:18;;;;;;;7.10;4.90;;;;;;;;;;108328;271;27669;-36
2023/04/29 04:32:54;;;;;;;6.20;4.50;;;;;;;;;;108340;275;27182;-36
2023/04/29 04:35:31;;;;;;;5.80;4.30;;;;;;;;;;108282;275;28075;-35
2023/04/29 04:38:05;;;;;;;6.10;4.60;;;;;;;;;;108045;275;376893;-36
2023/04/29 04:40:42;;;;;;;6.00;4.50;;;;;;;;;;108300;271;27906;-37
2023/04/29 04:43:19;;;;;;;5.90;4.40;;;;;;;;;;108341;275;27320;-37
2023/04/29 04:45:58;;;;;;;6.50;4.60;;;;;;;;;;108290;271;27907;-38
2023/04/29 04:48:34;;;;;;;6.10;4.50;;;;;;;;;;108385;271;28639;-37
2023/04/29 04:51:13;;;;;;;6.30;4.50;;;;;;;;;;108146;267;27863;-39
2023/04/29 04:53:48;;;;;;;6.70;4.60;;;;;;;;;;108113;267;38911;-38
2023/04/29 04:56:23;;;;;;;6.60;4.50;;;;;;;;;;108027;270;39442;-38
2023/04/29 04:58:56;;;;;;;6.40;4.30;;;;;;;;;;108084;274;42768;-39
2023/04/29 05:01:31;;;;;;;5.60;4.00;;;;;;;;;;108101;270;42055;-40
2023/04/29 05:04:05;;;;;;;6.20;4.30;;;;;;;;;;108133;274;38753;-39
2023/04/29 05:06:39;;;;;;;5.90;4.20;;;;;;;;;;108106;267;39738;-38
2023/04/29 05:09:17;;;;;;;6.80;4.20;;;;;;;;;;108065;271;43002;-38
2023/04/29 05:11:51;;;;;;;6.90;4.60;;;;;;;;;;108129;274;42174;-37
2023/04/29 05:14:24;;;;;;;8.40;4.70;;;;;;;;;;108106;270;38803;-37
2023/04/29 05:17:01;;;;;;;8.40;4.50;;;;;;;;;;108043;274;41048;-37
2023/04/29 05:19:34;;;;;;;6.60;4.10;;;;;;;;;;108143;274;42855;-37
2023/04/29 05:22:08;;;;;;;7.00;4.50;;;;;;;;;;108128;274;42121;-38
2023/04/29 05:24:47;;;;;;;7.30;4.20;;;;;;;;;;108150;270;39920;-38
2023/04/29 05:27:22;;;;;;;6.90;4.10;;;;;;;;;;108249;270;29958;-37
2023/04/29 05:29:56;;;;;;;6.90;4.00;;;;;;;;;;108149;274;42571;-37
2023/04/29 05:32:29;;;;;;;5.40;3.80;;;;;;;;;;108111;267;42034;-37
2023/04/29 05:35:03;;;;;;;6.30;4.30;;;;;;;;;;108100;274;38564;-37
2023/04/29 05:37:39;;;;;;;6.80;4.30;;;;;;;;;;108039;274;39460;-37
2023/04/29 05:40:14;;;;;;;6.90;4.30;;;;;;;;;;108124;274;43880;-38
2023/04/29 05:42:50;;;;;;;5.80;3.90;;;;;;;;;;108157;274;42445;-38
2023/04/29 05:45:24;;;;;;;5.60;3.90;;;;;;;;;;108117;270;38783;-38
2023/04/29 05:47:57;;;;;;;6.60;4.30;;;;;;;;;;108102;274;39678;-38
2023/04/29 05:50:32;;;;;;;5.90;4.20;;;;;;;;;;108042;267;42815;-37
2023/04/29 05:53:06;;;;;;;6.20;4.30;;;;;;;;;;108128;274;42150;-38
2023/04/29 05:55:39;;;;;;;7.10;4.40;;;;;;;;;;108218;267;27443;-38
2023/04/29 05:58:13;;;;;;;6.50;4.30;;;;;;;;;;108094;275;39420;-37
2023/04/29 06:00:48;;;;;;;8.60;4.20;;;;;;;;;;108138;270;44152;-38
2023/04/29 06:03:24;;;;;;;8.30;4.40;;;;;;;;;;108172;274;27309;-36
2023/04/29 06:06:03;;;;;;;8.00;4.40;;;;;;;;;;107957;274;175665;-38
2023/04/29 06:09:04;;;;;;;8.00;4.40;;;;;;;;;;93534;274;44262596;-36
2023/04/29 06:11:49;;;;;;;6.50;3.80;;;;;;;;;;102144;270;8352432;-38
